Hollinger, Nebraska
Current Conditions -  °F | °C
As of 10:35 PM on Saturday 22 Nov 2014 (Local Time) from KHDE Reporting Station
Overcast Overcast  
Wind Chill: 43°   Ceiling: 700
Heat Index: 47°   Visibility: 10mi
Dew Point: 43°   Wind: 9mph
Humidity: 87%   Direction: 180°S
Pressure: 29.52"   Gusts: NA
Location:  40.2849°N, 99.6171°W
Report Text: KHDE 230435Z AUTO 18008KT 10SM OVC007 08/06 A2952 RMK AO2 T00830062
Loading
Personal Weather Stations






























Interactive Weather Map New forecast layout! Learn more

10-Day Weather Forecast

Advertisements
Track Severe Weather on mobile